Time;durP1;ratioP1;P1;durP2;ratioP2;P2;SDS_P1;SDS_P2;PMS_P1;PMS_P2;Temp;Humidity;BMP_temperature;BMP_pressure;BME280_temperature;BME280_humidity;BME280_pressure;Samples;Min_cycle;Max_cycle;Signal;HPM_P1;HPM_P2
2022/08/08 00:00:00;;;;;;;0.00;0.00;;;20.60;63.00;;;;;;4992269;28;20672;-70
2022/08/08 00:03:03;;;;;;;0.00;0.00;;;20.70;63.40;;;;;;4992979;28;20045;-69
2022/08/08 00:05:55;;;;;;;5.82;0.45;;;20.90;63.40;;;;;;4993662;28;20038;-69
2022/08/08 00:08:47;;;;;;;0.00;0.00;;;21.00;62.70;;;;;;4977900;28;20034;-70
2022/08/08 00:11:38;;;;;;;0.00;0.00;;;21.10;62.30;;;;;;4992084;28;20030;-69
2022/08/08 00:14:30;;;;;;;0.00;0.00;;;21.10;62.40;;;;;;4991972;28;20081;-69
2022/08/08 00:17:10;;;;;;;0.00;0.00;;;21.10;62.40;;;;;;4983875;28;20042;-70
2022/08/08 00:19:59;;;;;;;0.00;0.00;;;21.10;62.50;;;;;;4991944;28;20030;-69
2022/08/08 00:22:41;;;;;;;0.00;0.00;;;21.00;62.60;;;;;;4976634;28;20491;-69
2022/08/08 00:25:21;;;;;;;1.80;0.38;;;21.00;62.80;;;;;;4991920;28;20034;-69
2022/08/08 00:27:51;;;;;;;0.00;0.00;;;20.80;63.00;;;;;;4991933;28;20034;-70
2022/08/08 00:30:18;;;;;;;0.00;0.00;;;20.70;63.20;;;;;;4991698;28;20501;-70
2022/08/08 00:32:49;;;;;;;0.17;0.10;;;20.60;63.10;;;;;;4991473;28;20038;-69
2022/08/08 00:35:31;;;;;;;0.10;0.10;;;20.60;63.40;;;;;;4992803;28;20513;-70
2022/08/08 00:37:59;;;;;;;0.52;0.25;;;20.70;63.40;;;;;;5000085;23;20113;-65
2022/08/08 00:40:28;;;;;;;0.00;0.00;;;20.70;63.50;;;;;;4962892;28;20055;-66
2022/08/08 00:43:18;;;;;;;0.00;0.00;;;20.70;63.40;;;;;;4972811;28;20037;-66
2022/08/08 00:45:58;;;;;;;0.00;0.00;;;20.70;63.60;;;;;;4973272;28;20027;-66
2022/08/08 00:49:13;;;;;;;0.00;0.00;;;20.70;63.70;;;;;;4973572;28;20112;-67
2022/08/08 00:52:22;;;;;;;0.00;0.00;;;20.60;63.90;;;;;;4940011;28;20298;-66
2022/08/08 00:55:26;;;;;;;0.00;0.00;;;20.60;63.90;;;;;;4973511;28;20118;-66
2022/08/08 00:58:31;;;;;;;0.00;0.00;;;20.60;64.00;;;;;;4971604;28;20033;-67
2022/08/08 01:01:23;;;;;;;0.30;0.30;;;20.60;63.70;;;;;;4972616;28;20030;-67
2022/08/08 01:04:21;;;;;;;5.35;0.30;;;20.60;63.90;;;;;;4971344;28;20022;-66
2022/08/08 01:07:43;;;;;;;0.00;0.00;;;20.60;64.00;;;;;;4972353;28;20050;-66
2022/08/08 01:11:05;;;;;;;0.10;0.08;;;20.60;64.30;;;;;;4973767;28;20070;-67
2022/08/08 01:14:50;;;;;;;0.00;0.00;;;20.50;64.20;;;;;;4953141;28;20404;-66
2022/08/08 01:17:29;;;;;;;0.00;0.00;;;20.60;64.00;;;;;;4920816;29;20138;-66
2022/08/08 01:20:42;;;;;;;0.08;0.08;;;20.50;64.20;;;;;;4952222;29;20024;-67
2022/08/08 01:23:45;;;;;;;0.43;0.43;;;20.40;64.60;;;;;;4954307;28;20042;-66
2022/08/08 01:26:48;;;;;;;0.20;0.10;;;20.40;64.40;;;;;;4992486;28;20106;-66
2022/08/08 01:29:36;;;;;;;0.52;0.47;;;20.40;64.60;;;;;;4991534;28;20031;-66
2022/08/08 01:32:36;;;;;;;0.00;0.00;;;20.40;64.70;;;;;;4962046;28;20101;-67
2022/08/08 01:35:25;;;;;;;3.75;1.02;;;20.40;64.70;;;;;;4991811;28;20557;-66
2022/08/08 01:38:47;;;;;;;0.13;0.10;;;20.40;64.80;;;;;;4991603;28;20030;-67
2022/08/08 01:41:33;;;;;;;0.00;0.00;;;20.40;64.80;;;;;;4982016;28;20034;-66
2022/08/08 01:44:53;;;;;;;0.20;0.20;;;20.30;65.50;;;;;;4970933;28;20037;-67
2022/08/08 01:47:46;;;;;;;1.75;1.08;;;20.20;64.90;;;;;;4987249;28;20074;-67
2022/08/08 01:50:44;;;;;;;0.00;0.00;;;20.20;65.20;;;;;;4987307;28;20031;-67
2022/08/08 01:53:51;;;;;;;0.00;0.00;;;20.00;65.00;;;;;;4970831;28;20030;-67
2022/08/08 01:56:33;;;;;;;0.63;0.57;;;20.00;65.30;;;;;;4972085;28;20047;-67
2022/08/08 01:59:43;;;;;;;0.00;0.00;;;20.00;65.40;;;;;;4971559;28;20034;-67
2022/08/08 02:02:54;;;;;;;0.25;0.13;;;19.90;65.60;;;;;;4971844;28;20031;-66
2022/08/08 02:05:48;;;;;;;1.15;0.25;;;19.90;65.80;;;;;;4912323;29;20048;-66
2022/08/08 02:08:17;;;;;;;0.00;0.00;;;19.90;65.60;;;;;;4896400;29;20036;-66
2022/08/08 02:10:59;;;;;;;0.00;0.00;;;19.80;65.50;;;;;;4957860;28;20546;-67
2022/08/08 02:13:55;;;;;;;0.00;0.00;;;19.90;65.70;;;;;;4990711;28;20082;-67
2022/08/08 02:16:48;;;;;;;0.00;0.00;;;19.80;65.70;;;;;;4990121;28;20038;-67
2022/08/08 02:19:38;;;;;;;0.52;0.52;;;19.50;66.30;;;;;;4995364;28;20030;-67
2022/08/08 02:22:32;;;;;;;0.00;0.00;;;19.40;66.60;;;;;;4994429;28;20034;-67
2022/08/08 02:25:32;;;;;;;0.00;0.00;;;19.20;66.90;;;;;;4994351;28;20034;-67
2022/08/08 02:28:29;;;;;;;0.38;0.35;;;19.10;67.20;;;;;;4995218;28;20518;-67
2022/08/08 02:31:29;;;;;;;0.00;0.00;;;19.10;67.50;;;;;;4993202;28;20475;-67
2022/08/08 02:34:19;;;;;;;0.03;0.03;;;19.10;67.70;;;;;;4993767;28;20031;-67
2022/08/08 02:37:07;;;;;;;0.00;0.00;;;19.20;67.60;;;;;;4993972;28;20556;-66
2022/08/08 02:39:59;;;;;;;0.10;0.10;;;19.20;67.40;;;;;;4994595;28;20042;-67
2022/08/08 02:42:49;;;;;;;;;;;19.10;67.50;;;;;;4993823;28;20065;-67
2022/08/08 02:46:05;;;;;;;0.00;0.00;;;19.00;67.70;;;;;;4995206;28;19920;-67
2022/08/08 02:49:08;;;;;;;0.00;0.00;;;19.00;67.90;;;;;;4973934;28;20073;-67
2022/08/08 02:52:37;;;;;;;0.00;0.00;;;19.00;68.00;;;;;;4994995;28;20486;-67
2022/08/08 02:55:36;;;;;;;0.00;0.00;;;19.10;68.00;;;;;;4953290;29;20057;-67
2022/08/08 02:59:01;;;;;;;0.00;0.00;;;19.10;68.00;;;;;;4953605;29;20035;-66
2022/08/08 03:02:09;;;;;;;0.00;0.00;;;18.90;68.10;;;;;;4939391;29;20043;-67
2022/08/08 03:04:56;;;;;;;0.00;0.00;;;18.90;68.90;;;;;;4953545;29;20034;-67
2022/08/08 03:08:02;;;;;;;0.00;0.00;;;18.90;68.10;;;;;;4953603;29;20039;-67
2022/08/08 03:11:24;;;;;;;0.20;0.13;;;18.90;68.90;;;;;;4934740;29;20054;-68
2022/08/08 03:14:07;;;;;;;0.00;0.00;;;19.00;68.40;;;;;;4952815;29;20066;-66
2022/08/08 03:17:09;;;;;;;0.00;0.00;;;19.00;68.10;;;;;;4934896;29;20073;-67
2022/08/08 03:20:05;;;;;;;0.15;0.15;;;19.00;68.20;;;;;;4905848;29;20047;-66
2022/08/08 03:22:32;;;;;;;0.00;0.00;;;18.90;67.70;;;;;;4932810;29;20034;-67
2022/08/08 03:25:05;;;;;;;0.00;0.00;;;19.10;68.00;;;;;;4937411;29;20408;-66
2022/08/08 03:27:38;;;;;;;2.92;1.52;;;19.10;67.70;;;;;;4955388;28;20507;-66
2022/08/08 03:30:10;;;;;;;0.00;0.00;;;19.20;67.90;;;;;;4953854;29;20119;-66
2022/08/08 03:35:23;;;;;;;0.20;0.20;;;19.20;68.00;;;;;;4954331;29;20038;-67
2022/08/08 03:37:50;;;;;;;0.00;0.00;;;19.10;67.80;;;;;;4953947;29;20035;-66
2022/08/08 03:40:19;;;;;;;0.00;0.00;;;19.20;68.00;;;;;;4955031;28;20513;-67
2022/08/08 03:42:46;;;;;;;0.00;0.00;;;19.20;67.90;;;;;;4953527;29;20450;-66
2022/08/08 03:45:21;;;;;;;0.05;0.03;;;19.20;67.70;;;;;;4953878;29;20552;-67
2022/08/08 03:48:03;;;;;;;0.10;0.10;;;19.20;67.70;;;;;;4961551;28;20070;-68
2022/08/08 03:50:33;;;;;;;0.00;0.00;;;18.90;68.20;;;;;;4983877;28;20026;-68
2022/08/08 03:53:06;;;;;;;0.00;0.00;;;19.00;68.10;;;;;;4973616;28;20510;-69
2022/08/08 03:55:36;;;;;;;0.05;0.00;;;18.50;69.20;;;;;;4973914;28;20043;-68
2022/08/08 03:58:02;;;;;;;0.50;0.47;;;18.40;69.50;;;;;;4972895;28;20471;-68
2022/08/08 04:00:29;;;;;;;7.03;3.10;;;18.20;69.90;;;;;;4972177;28;20046;-68
2022/08/08 04:03:05;;;;;;;0.00;0.00;;;18.10;70.30;;;;;;4973721;28;20037;-68
2022/08/08 04:05:35;;;;;;;0.00;0.00;;;18.00;70.70;;;;;;4974429;28;20038;-68
2022/08/08 04:08:04;;;;;;;0.08;0.08;;;17.90;70.90;;;;;;4974183;28;20483;-68
2022/08/08 04:10:33;;;;;;;0.00;0.00;;;17.90;71.10;;;;;;4972063;28;20058;-67
2022/08/08 04:13:00;;;;;;;0.15;0.10;;;17.80;71.30;;;;;;4974098;28;20039;-68
2022/08/08 04:15:26;;;;;;;0.00;0.00;;;17.70;71.40;;;;;;4998459;28;20045;-68
2022/08/08 04:17:52;;;;;;;0.00;0.00;;;17.60;71.90;;;;;;4972032;28;20369;-68
2022/08/08 04:20:18;;;;;;;0.00;0.00;;;17.50;72.10;;;;;;4954094;29;20031;-67
2022/08/08 04:22:44;;;;;;;0.00;0.00;;;17.60;72.20;;;;;;4954005;29;20031;-67
2022/08/08 04:25:09;;;;;;;0.82;0.10;;;17.50;72.20;;;;;;4953898;29;20046;-68
2022/08/08 04:27:37;;;;;;;0.00;0.00;;;17.50;72.30;;;;;;4954193;28;20384;-68
2022/08/08 04:30:05;;;;;;;0.00;0.00;;;17.50;72.50;;;;;;4953858;29;20020;-67
2022/08/08 04:32:31;;;;;;;0.20;0.20;;;17.50;72.50;;;;;;4951899;28;20392;-67
2022/08/08 04:34:57;;;;;;;0.00;0.00;;;17.50;72.60;;;;;;4936785;29;20027;-68
2022/08/08 04:37:23;;;;;;;0.00;0.00;;;17.40;72.80;;;;;;4952503;29;20035;-67
2022/08/08 04:39:49;;;;;;;0.00;0.00;;;17.40;72.90;;;;;;4955359;28;20041;-67
2022/08/08 04:42:15;;;;;;;0.20;0.17;;;17.40;72.90;;;;;;4965738;28;20026;-67
2022/08/08 04:44:41;;;;;;;0.13;0.08;;;17.40;73.00;;;;;;4972767;28;20640;-66
2022/08/08 04:47:07;;;;;;;0.00;0.00;;;17.40;72.90;;;;;;4971725;28;20500;-66
2022/08/08 04:49:33;;;;;;;0.00;0.00;;;17.50;73.00;;;;;;4972349;28;20512;-69
2022/08/08 04:51:59;;;;;;;0.00;0.00;;;17.50;72.90;;;;;;4972855;28;20038;-68
2022/08/08 04:54:25;;;;;;;0.00;0.00;;;17.40;73.30;;;;;;4971356;28;20031;-67
2022/08/08 04:56:51;;;;;;;0.00;0.00;;;17.40;73.30;;;;;;4971710;28;20626;-68
2022/08/08 04:59:17;;;;;;;0.00;0.00;;;17.30;73.80;;;;;;4972440;28;20105;-68
2022/08/08 05:01:43;;;;;;;0.00;0.00;;;17.20;74.00;;;;;;4971358;28;20022;-67
2022/08/08 05:04:09;;;;;;;0.00;0.00;;;17.20;74.10;;;;;;4972241;28;20019;-68
2022/08/08 05:06:36;;;;;;;0.10;0.08;;;17.20;74.30;;;;;;4971513;28;20031;-68
2022/08/08 05:09:03;;;;;;;0.00;0.00;;;17.00;74.20;;;;;;4971345;28;20122;-68
2022/08/08 05:11:29;;;;;;;0.10;0.10;;;17.00;75.00;;;;;;4955000;28;20027;-67
2022/08/08 05:13:55;;;;;;;0.00;0.00;;;16.90;75.10;;;;;;4972287;28;20039;-68
2022/08/08 05:16:21;;;;;;;0.00;0.00;;;17.00;75.30;;;;;;4968142;28;20027;-68
2022/08/08 05:18:47;;;;;;;0.00;0.00;;;17.00;75.30;;;;;;4970434;28;20122;-68
2022/08/08 05:21:13;;;;;;;0.20;0.20;;;17.00;75.30;;;;;;4971472;28;20035;-67
2022/08/08 05:23:39;;;;;;;0.03;0.03;;;17.10;75.80;;;;;;4970742;28;20554;-67
2022/08/08 05:26:05;;;;;;;0.00;0.00;;;17.10;75.00;;;;;;4971302;28;20117;-68
2022/08/08 05:28:31;;;;;;;0.15;0.15;;;17.10;74.90;;;;;;4972318;28;20121;-67
2022/08/08 05:30:57;;;;;;;0.00;0.00;;;17.10;74.90;;;;;;4972082;28;20042;-68
2022/08/08 05:33:23;;;;;;;13.05;0.77;;;17.30;75.50;;;;;;4971655;28;20069;-73
2022/08/08 05:35:52;;;;;;;0.00;0.00;;;17.30;74.80;;;;;;4970764;28;20526;-72
2022/08/08 05:38:19;;;;;;;0.00;0.00;;;17.40;74.90;;;;;;4957509;28;20038;-71
2022/08/08 05:40:48;;;;;;;0.00;0.00;;;17.50;74.80;;;;;;4983726;28;20045;-71
2022/08/08 05:43:35;;;;;;;0.00;0.00;;;17.70;74.20;;;;;;4975824;28;20034;-71
2022/08/08 05:46:03;;;;;;;0.00;0.00;;;17.70;73.20;;;;;;4965017;28;20034;-72
2022/08/08 05:48:32;;;;;;;0.00;0.00;;;17.80;73.50;;;;;;4970848;28;20026;-72
2022/08/08 05:50:58;;;;;;;1.90;1.75;;;17.90;73.60;;;;;;4970187;28;20493;-71
2022/08/08 05:53:24;;;;;;;0.10;0.10;;;17.90;73.50;;;;;;4969644;28;20073;-70
2022/08/08 05:55:59;;;;;;;0.00;0.00;;;17.90;73.20;;;;;;4964725;28;20042;-72
2022/08/08 05:58:31;;;;;;;0.13;0.10;;;18.00;73.20;;;;;;4970641;28;20065;-71
2022/08/08 06:01:00;;;;;;;0.00;0.00;;;18.10;72.80;;;;;;4968723;28;20038;-71
2022/08/08 06:03:28;;;;;;;0.00;0.00;;;18.20;72.70;;;;;;4964831;28;20057;-69
2022/08/08 06:06:08;;;;;;;0.00;0.00;;;18.30;72.40;;;;;;4970661;28;20080;-67
2022/08/08 06:08:41;;;;;;;0.00;0.00;;;18.30;72.60;;;;;;4970126;28;20030;-67
2022/08/08 06:11:07;;;;;;;0.00;0.00;;;18.30;72.90;;;;;;4970873;28;20049;-67
2022/08/08 06:13:33;;;;;;;3.55;2.00;;;18.40;72.70;;;;;;4972086;28;20474;-67
2022/08/08 06:15:59;;;;;;;0.00;0.00;;;18.40;72.20;;;;;;4950763;28;20058;-66
2022/08/08 06:18:26;;;;;;;0.30;0.28;;;18.40;72.20;;;;;;4948876;28;20141;-67
2022/08/08 06:20:59;;;;;;;0.00;0.00;;;18.50;72.70;;;;;;4971159;28;20026;-67
2022/08/08 06:23:26;;;;;;;0.00;0.00;;;18.60;72.10;;;;;;4970226;28;20041;-67
2022/08/08 06:26:08;;;;;;;0.70;0.55;;;18.70;72.00;;;;;;4971756;28;20595;-68
2022/08/08 06:28:57;;;;;;;0.00;0.00;;;18.80;71.70;;;;;;4971906;28;20035;-68
2022/08/08 06:31:24;;;;;;;0.65;0.43;;;18.80;71.60;;;;;;4970569;28;20022;-68
2022/08/08 06:34:17;;;;;;;0.10;0.10;;;18.90;71.50;;;;;;4969873;28;20027;-67
2022/08/08 06:36:46;;;;;;;0.00;0.00;;;19.00;71.40;;;;;;4971574;28;20031;-67
2022/08/08 06:39:13;;;;;;;0.57;0.22;;;19.00;71.20;;;;;;4970859;28;20030;-67
2022/08/08 06:41:55;;;;;;;0.00;0.00;;;19.00;71.40;;;;;;4970716;28;20033;-67
2022/08/08 06:44:24;;;;;;;0.00;0.00;;;19.10;71.80;;;;;;4971138;28;20027;-67
2022/08/08 06:46:51;;;;;;;0.00;0.00;;;19.30;71.40;;;;;;4969595;28;20147;-67
2022/08/08 06:49:18;;;;;;;0.10;0.10;;;19.30;71.20;;;;;;4970121;28;20029;-66
2022/08/08 06:51:44;;;;;;;0.00;0.00;;;19.40;70.70;;;;;;4969993;28;20479;-68
2022/08/08 06:54:10;;;;;;;0.00;0.00;;;19.50;70.30;;;;;;4971058;28;20085;-68
2022/08/08 06:56:36;;;;;;;0.00;0.00;;;19.60;70.10;;;;;;4973240;28;20062;-68
2022/08/08 06:59:03;;;;;;;0.00;0.00;;;19.70;70.10;;;;;;4973381;28;20387;-68
2022/08/08 07:01:37;;;;;;;9.73;0.60;;;19.70;69.80;;;;;;4974051;28;20057;-68
2022/08/08 07:04:15;;;;;;;1.90;0.20;;;19.80;70.30;;;;;;4973214;28;20045;-68
2022/08/08 07:06:58;;;;;;;0.40;0.30;;;19.90;70.50;;;;;;4972324;28;20042;-69
2022/08/08 07:09:57;;;;;;;0.90;0.63;;;19.90;69.40;;;;;;4973457;28;20447;-69
2022/08/08 07:12:44;;;;;;;0.20;0.15;;;20.00;69.50;;;;;;4959498;28;20046;-69
2022/08/08 07:15:13;;;;;;;0.10;0.10;;;20.10;69.20;;;;;;4966462;28;20041;-67
2022/08/08 07:17:48;;;;;;;0.00;0.00;;;20.20;69.30;;;;;;4972459;28;20098;-67
2022/08/08 07:20:28;;;;;;;0.00;0.00;;;20.30;69.00;;;;;;4971672;28;20030;-67
2022/08/08 07:23:07;;;;;;;0.00;0.00;;;20.30;68.50;;;;;;4972400;28;20395;-68
2022/08/08 07:25:41;;;;;;;0.10;0.10;;;20.50;68.80;;;;;;4965075;28;20471;-67
2022/08/08 07:28:12;;;;;;;0.00;0.00;;;20.60;68.80;;;;;;4976229;28;20411;-68
2022/08/08 07:30:39;;;;;;;0.10;0.10;;;20.70;68.40;;;;;;4956921;28;20458;-68
2022/08/08 07:33:05;;;;;;;0.10;0.10;;;20.90;68.00;;;;;;4973877;28;20065;-67
2022/08/08 07:35:32;;;;;;;0.30;0.30;;;20.90;67.60;;;;;;4956478;28;20027;-67
2022/08/08 07:37:59;;;;;;;0.00;0.00;;;21.00;67.40;;;;;;4973529;28;20066;-67
2022/08/08 07:40:26;;;;;;;0.00;0.00;;;21.10;67.50;;;;;;4971904;28;20031;-67
2022/08/08 07:42:53;;;;;;;0.00;0.00;;;21.20;67.30;;;;;;4971786;28;20616;-67
2022/08/08 07:45:20;;;;;;;0.00;0.00;;;21.40;67.20;;;;;;4971383;28;20035;-67
2022/08/08 07:47:46;;;;;;;0.20;0.13;;;21.50;66.90;;;;;;4972807;28;20606;-66
2022/08/08 07:50:13;;;;;;;0.00;0.00;;;21.60;67.30;;;;;;4972148;28;20023;-71
2022/08/08 07:52:49;;;;;;;0.00;0.00;;;21.70;67.20;;;;;;4973851;28;20031;-71
2022/08/08 07:55:46;;;;;;;20.27;1.45;;;21.70;65.80;;;;;;4964087;28;20542;-73
2022/08/08 07:58:17;;;;;;;0.00;0.00;;;21.80;67.40;;;;;;4944607;28;20376;-72
2022/08/08 08:00:50;;;;;;;1.75;0.75;;;21.90;67.00;;;;;;4969772;28;20167;-72
2022/08/08 08:03:31;;;;;;;0.00;0.00;;;22.00;65.70;;;;;;4968662;28;20535;-73
2022/08/08 08:05:59;;;;;;;0.00;0.00;;;22.10;65.40;;;;;;4955962;28;20035;-72
2022/08/08 08:08:40;;;;;;;0.00;0.00;;;22.30;66.00;;;;;;4972827;28;20039;-72
2022/08/08 08:11:11;;;;;;;0.00;0.00;;;22.40;64.60;;;;;;4971596;28;20030;-72
2022/08/08 08:14:05;;;;;;;0.00;0.00;;;22.50;64.20;;;;;;4955914;28;20058;-73
2022/08/08 08:16:38;;;;;;;0.00;0.00;;;22.60;63.90;;;;;;4972226;28;20037;-73
2022/08/08 08:19:08;;;;;;;0.00;0.00;;;22.80;63.40;;;;;;4972322;28;20026;-71
2022/08/08 08:21:47;;;;;;;0.00;0.00;;;22.90;63.50;;;;;;4972781;28;20027;-73
2022/08/08 08:24:14;;;;;;;1.25;0.80;;;23.00;63.60;;;;;;4973174;28;20022;-72
2022/08/08 08:26:41;;;;;;;0.00;0.00;;;23.00;62.50;;;;;;4967416;28;20042;-71
2022/08/08 08:29:08;;;;;;;0.10;0.00;;;23.10;62.60;;;;;;4971414;28;20439;-72
2022/08/08 08:31:34;;;;;;;0.00;0.00;;;23.10;62.60;;;;;;4955418;28;20034;-72
2022/08/08 08:34:01;;;;;;;0.13;0.08;;;23.20;63.10;;;;;;4971244;28;20061;-71
2022/08/08 08:36:27;;;;;;;0.10;0.10;;;23.40;62.60;;;;;;4972672;28;20479;-72
2022/08/08 08:38:53;;;;;;;0.10;0.10;;;23.50;63.10;;;;;;4970475;28;20156;-72
2022/08/08 08:41:20;;;;;;;0.55;0.30;;;23.50;63.40;;;;;;4972713;28;20030;-72
2022/08/08 08:43:49;;;;;;;0.00;0.00;;;23.70;62.80;;;;;;4972433;28;20030;-71
2022/08/08 08:46:15;;;;;;;0.08;0.03;;;23.80;62.80;;;;;;4971213;28;20426;-72
2022/08/08 08:48:42;;;;;;;0.00;0.00;;;23.80;62.70;;;;;;4971326;28;20038;-71
2022/08/08 08:51:15;;;;;;;0.20;0.10;;;24.00;62.30;;;;;;4970621;28;20101;-72
2022/08/08 08:53:51;;;;;;;0.00;0.00;;;24.10;62.10;;;;;;4971115;28;20089;-72
2022/08/08 08:56:26;;;;;;;0.10;0.00;;;24.20;61.90;;;;;;4970608;28;20027;-72
2022/08/08 08:58:52;;;;;;;0.00;0.00;;;24.10;61.70;;;;;;4970397;28;20031;-72
2022/08/08 09:01:23;;;;;;;0.00;0.00;;;24.30;61.70;;;;;;4972218;28;20392;-72
2022/08/08 09:03:50;;;;;;;0.32;0.15;;;24.30;60.90;;;;;;4970432;28;20058;-72
2022/08/08 09:06:24;;;;;;;0.00;0.00;;;24.50;61.50;;;;;;4971157;28;20039;-73
2022/08/08 09:09:09;;;;;;;0.00;0.00;;;24.70;61.20;;;;;;4970311;28;20030;-72
2022/08/08 09:11:37;;;;;;;0.00;0.00;;;24.90;61.00;;;;;;4967252;28;20066;-72
2022/08/08 09:14:03;;;;;;;0.00;0.00;;;25.00;61.40;;;;;;4954728;28;20043;-73
2022/08/08 09:16:30;;;;;;;0.00;0.00;;;25.10;60.60;;;;;;4970229;28;20125;-73
2022/08/08 09:18:56;;;;;;;0.00;0.00;;;25.10;60.40;;;;;;4969712;28;20046;-73
2022/08/08 09:21:23;;;;;;;0.00;0.00;;;25.30;61.70;;;;;;4970424;28;20277;-72
2022/08/08 09:23:49;;;;;;;0.00;0.00;;;25.40;60.40;;;;;;4965744;28;20084;-73
2022/08/08 09:26:28;;;;;;;0.00;0.00;;;25.60;59.90;;;;;;4969633;28;20098;-72
2022/08/08 09:28:59;;;;;;;1.92;0.85;;;25.60;59.30;;;;;;4970026;28;20034;-73
2022/08/08 09:31:59;;;;;;;0.10;0.10;;;25.70;59.00;;;;;;4970502;28;20106;-72
2022/08/08 09:34:32;;;;;;;1.17;1.00;;;25.70;59.00;;;;;;4971590;28;20158;-72
2022/08/08 09:37:08;;;;;;;0.00;0.00;;;25.90;59.60;;;;;;4970905;28;20035;-73
2022/08/08 09:39:51;;;;;;;1.40;0.50;;;26.00;59.70;;;;;;4970697;28;20034;-73
2022/08/08 09:42:22;;;;;;;0.00;0.00;;;26.10;59.60;;;;;;4952588;28;20046;-69
2022/08/08 09:45:20;;;;;;;0.40;0.10;;;26.10;59.30;;;;;;4966462;28;20038;-70
2022/08/08 09:47:48;;;;;;;0.60;0.22;;;26.10;59.80;;;;;;4952209;28;20031;-68
2022/08/08 09:50:22;;;;;;;0.00;0.00;;;26.20;59.70;;;;;;4969989;28;20027;-68
2022/08/08 09:52:53;;;;;;;0.10;0.00;;;26.30;58.80;;;;;;4952965;28;20043;-67
2022/08/08 09:55:21;;;;;;;0.05;0.00;;;26.30;59.30;;;;;;4970970;28;20031;-69
2022/08/08 09:58:06;;;;;;;0.15;0.13;;;26.40;59.00;;;;;;4972333;28;20081;-68
2022/08/08 10:00:37;;;;;;;0.00;0.00;;;26.50;59.10;;;;;;4969772;28;20038;-67
2022/08/08 10:03:04;;;;;;;0.03;0.03;;;26.70;59.80;;;;;;4970941;28;20387;-69
2022/08/08 10:05:37;;;;;;;0.10;0.10;;;26.80;59.10;;;;;;4969748;28;20027;-68
2022/08/08 10:08:04;;;;;;;0.25;0.25;;;27.00;58.90;;;;;;4971223;28;20041;-69
2022/08/08 10:10:43;;;;;;;0.00;0.00;;;27.00;58.50;;;;;;4968643;28;20616;-69
2022/08/08 10:13:24;;;;;;;0.00;0.00;;;27.00;58.00;;;;;;4970262;28;20027;-70
2022/08/08 10:15:53;;;;;;;0.10;0.10;;;27.30;58.20;;;;;;4970198;28;20057;-72
2022/08/08 10:18:30;;;;;;;0.00;0.00;;;27.60;58.00;;;;;;4971297;28;20029;-70
2022/08/08 10:21:09;;;;;;;0.15;0.15;;;27.50;58.10;;;;;;4970198;28;20399;-67
2022/08/08 10:23:50;;;;;;;0.10;0.00;;;27.60;57.90;;;;;;4971097;28;20497;-71
2022/08/08 10:26:18;;;;;;;;;;;27.60;57.60;;;;;;4967811;28;20082;-70
2022/08/08 10:29:08;;;;;;;0.10;0.10;;;27.50;57.30;;;;;;4971119;28;19949;-68
2022/08/08 10:34:23;;;;;;;0.00;0.00;;;27.80;56.70;;;;;;4968226;28;20358;-69
2022/08/08 10:36:51;;;;;;;0.32;0.17;;;27.90;57.00;;;;;;4973559;28;20372;-69
2022/08/08 10:39:23;;;;;;;0.10;0.00;;;28.00;56.50;;;;;;4974157;28;20353;-69
2022/08/08 10:42:00;;;;;;;0.43;0.30;;;28.30;55.90;;;;;;4973086;28;20034;-69
2022/08/08 10:44:39;;;;;;;0.00;0.00;;;28.40;55.30;;;;;;4974593;28;20480;-69
2022/08/08 10:47:17;;;;;;;0.05;0.05;;;28.50;56.00;;;;;;4974740;28;20106;-68
2022/08/08 10:49:55;;;;;;;0.10;0.10;;;28.70;55.40;;;;;;4974017;28;20054;-68
2022/08/08 10:52:34;;;;;;;0.00;0.00;;;28.70;55.10;;;;;;4974214;28;20026;-68
2022/08/08 10:55:13;;;;;;;0.00;0.00;;;28.70;55.70;;;;;;4974293;28;20368;-69
2022/08/08 10:57:48;;;;;;;4.18;1.00;;;28.80;55.30;;;;;;4953938;29;20035;-68
2022/08/08 11:00:26;;;;;;;0.17;0.10;;;28.90;55.00;;;;;;4962124;28;20039;-68
2022/08/08 11:02:54;;;;;;;0.03;0.03;;;28.90;55.40;;;;;;4955819;28;20351;-69
2022/08/08 11:05:21;;;;;;;0.30;0.13;;;28.80;55.00;;;;;;4974159;28;20030;-68
2022/08/08 11:07:53;;;;;;;0.00;0.00;;;28.80;55.20;;;;;;4974160;28;20042;-68
2022/08/08 11:10:23;;;;;;;0.25;0.25;;;28.70;54.50;;;;;;4973927;28;20042;-68
2022/08/08 11:13:00;;;;;;;0.08;0.08;;;28.60;54.90;;;;;;4974084;28;20586;-68
2022/08/08 11:15:28;;;;;;;0.10;0.00;;;28.80;55.10;;;;;;4972772;28;20500;-68
2022/08/08 11:17:55;;;;;;;0.08;0.03;;;29.10;55.40;;;;;;4974162;28;20034;-69
2022/08/08 11:20:28;;;;;;;0.00;0.00;;;29.40;54.40;;;;;;4956239;28;20038;-69
2022/08/08 11:23:00;;;;;;;0.00;0.00;;;29.50;54.80;;;;;;4972443;28;20520;-68
2022/08/08 11:25:32;;;;;;;1.00;0.65;;;29.60;54.40;;;;;;4973675;28;20035;-70
2022/08/08 11:28:00;;;;;;;0.00;0.00;;;29.80;54.10;;;;;;4972295;28;20038;-70
2022/08/08 11:30:32;;;;;;;1.98;1.05;;;30.00;54.30;;;;;;4972141;28;20089;-69
2022/08/08 11:33:03;;;;;;;0.15;0.13;;;29.70;53.50;;;;;;5005859;28;20038;-70
2022/08/08 11:35:29;;;;;;;0.00;0.00;;;30.00;53.90;;;;;;4973767;28;20034;-69
2022/08/08 11:37:55;;;;;;;0.03;0.00;;;30.50;53.40;;;;;;4972190;28;20066;-69
2022/08/08 11:40:21;;;;;;;0.00;0.00;;;30.70;52.70;;;;;;4973224;28;20118;-69
2022/08/08 11:42:49;;;;;;;0.10;0.03;;;30.40;53.00;;;;;;4972614;28;20039;-69
2022/08/08 11:45:15;;;;;;;0.00;0.00;;;30.70;52.60;;;;;;4952948;28;20407;-70
2022/08/08 11:47:41;;;;;;;0.00;0.00;;;31.00;52.70;;;;;;4972359;28;20038;-69
2022/08/08 11:50:12;;;;;;;0.00;0.00;;;31.20;52.10;;;;;;4973032;28;20027;-70
2022/08/08 11:52:39;;;;;;;0.00;0.00;;;31.30;52.50;;;;;;4959133;28;20114;-68
2022/08/08 11:55:18;;;;;;;2.83;0.57;;;30.50;52.70;;;;;;4972851;28;20026;-68
2022/08/08 11:57:45;;;;;;;0.10;0.10;;;31.10;52.40;;;;;;4973220;28;20439;-68
2022/08/08 12:00:16;;;;;;;0.10;0.10;;;31.40;52.10;;;;;;4964026;28;20637;-68
2022/08/08 12:02:49;;;;;;;0.10;0.10;;;31.70;51.40;;;;;;4973486;28;20053;-69
2022/08/08 12:05:16;;;;;;;0.90;0.40;;;31.90;51.50;;;;;;4965569;28;20418;-69
2022/08/08 12:07:51;;;;;;;0.00;0.00;;;32.00;51.30;;;;;;4972280;28;20089;-68
2022/08/08 12:10:20;;;;;;;0.20;0.15;;;31.60;50.60;;;;;;4971223;28;20063;-69
2022/08/08 12:12:49;;;;;;;0.00;0.00;;;31.30;51.40;;;;;;4972813;28;20030;-69
2022/08/08 12:15:29;;;;;;;0.10;0.10;;;31.20;51.70;;;;;;4972381;28;20054;-69
2022/08/08 12:17:55;;;;;;;0.00;0.00;;;30.70;51.90;;;;;;4971653;28;20193;-69
2022/08/08 12:20:21;;;;;;;3.22;1.15;;;30.90;51.90;;;;;;4971800;28;20134;-70
2022/08/08 12:22:50;;;;;;;0.47;0.10;;;31.00;51.70;;;;;;4972988;28;20022;-70
2022/08/08 12:25:26;;;;;;;0.17;0.10;;;30.60;52.20;;;;;;4972474;28;20039;-70
2022/08/08 12:28:12;;;;;;;0.00;0.00;;;30.70;52.10;;;;;;4972624;28;20479;-70
2022/08/08 12:30:42;;;;;;;0.00;0.00;;;31.00;51.40;;;;;;4971335;28;20678;-69
2022/08/08 12:33:26;;;;;;;0.85;0.25;;;31.00;52.50;;;;;;4955232;28;20106;-70
2022/08/08 12:35:52;;;;;;;0.10;0.10;;;31.40;51.80;;;;;;4973074;28;20035;-70
2022/08/08 12:38:19;;;;;;;0.08;0.08;;;31.30;51.40;;;;;;4972038;28;20922;-70
2022/08/08 12:40:53;;;;;;;0.00;0.00;;;31.30;51.80;;;;;;4972489;28;20391;-70
2022/08/08 12:43:37;;;;;;;0.10;0.00;;;31.60;51.40;;;;;;4971251;28;20438;-70
2022/08/08 12:46:16;;;;;;;0.30;0.25;;;31.20;51.10;;;;;;4970466;28;20064;-70
2022/08/08 12:49:00;;;;;;;0.30;0.30;;;31.90;51.10;;;;;;4972334;28;20027;-70
2022/08/08 12:51:37;;;;;;;0.00;0.00;;;31.60;50.90;;;;;;4971573;28;20550;-68
2022/08/08 12:54:03;;;;;;;0.00;0.00;;;32.10;51.00;;;;;;4970637;28;20030;-69
2022/08/08 12:56:33;;;;;;;0.00;0.00;;;32.00;50.70;;;;;;4972295;28;20113;-69
2022/08/08 12:58:59;;;;;;;0.85;0.17;;;31.90;50.80;;;;;;4971543;28;20422;-69
2022/08/08 13:01:35;;;;;;;0.10;0.10;;;31.70;50.00;;;;;;4972292;28;20035;-69
2022/08/08 13:04:18;;;;;;;0.10;0.00;;;31.60;50.50;;;;;;4969913;28;20027;-69
2022/08/08 13:07:13;;;;;;;0.57;0.57;;;32.10;50.90;;;;;;4971122;28;20031;-69
2022/08/08 13:09:52;;;;;;;0.00;0.00;;;32.60;51.10;;;;;;4968482;28;20057;-69
2022/08/08 13:12:31;;;;;;;0.00;0.00;;;33.10;49.80;;;;;;4971913;28;20046;-69
2022/08/08 13:15:01;;;;;;;0.00;0.00;;;33.30;48.40;;;;;;4970208;28;20540;-69
2022/08/08 13:17:30;;;;;;;5.45;0.60;;;33.40;49.10;;;;;;4985765;23;20035;-71
2022/08/08 13:19:56;;;;;;;0.20;0.17;;;33.20;48.60;;;;;;4980921;28;20038;-71
2022/08/08 13:22:23;;;;;;;0.00;0.00;;;33.10;49.20;;;;;;4978322;28;20045;-71
2022/08/08 13:24:50;;;;;;;0.20;0.13;;;33.30;49.10;;;;;;4967204;28;20395;-72
2022/08/08 13:27:26;;;;;;;0.10;0.10;;;34.00;49.10;;;;;;4975513;28;20074;-72
2022/08/08 13:29:59;;;;;;;0.10;0.10;;;34.60;48.20;;;;;;4947907;28;20035;-72
2022/08/08 13:32:29;;;;;;;0.20;0.20;;;34.40;47.90;;;;;;4952161;28;20023;-72
2022/08/08 13:34:56;;;;;;;0.35;0.17;;;34.50;47.90;;;;;;4952238;28;20019;-72
2022/08/08 13:37:25;;;;;;;0.00;0.00;;;34.40;47.30;;;;;;4952296;28;20028;-71
2022/08/08 13:39:54;;;;;;;0.10;0.10;;;34.40;47.50;;;;;;4951310;28;20039;-71
2022/08/08 13:42:21;;;;;;;0.10;0.10;;;34.70;47.60;;;;;;4950685;28;20106;-71